createdAt,value
2022-10-16T00:00:23.169Z,93827.63
2022-10-16T00:01:26.295Z,93831.66
2022-10-16T00:02:29.121Z,93834.63
2022-10-16T00:03:30.607Z,93834.63
2022-10-16T00:04:32.050Z,93837.28
2022-10-16T00:05:34.473Z,93833.44
2022-10-16T00:06:35.933Z,93836.28
2022-10-16T00:07:37.353Z,93830.19
2022-10-16T00:08:39.725Z,93837.34
2022-10-16T00:09:41.162Z,93833.28
2022-10-16T00:10:42.576Z,93837.72
2022-10-16T00:11:44.367Z,93843.47
2022-10-16T00:12:45.842Z,93834.91
2022-10-16T00:13:49.074Z,93834.50
2022-10-16T00:14:50.525Z,93834.69
2022-10-16T00:15:51.919Z,93825.06
2022-10-16T00:16:53.345Z,93830.06
2022-10-16T00:17:56.145Z,93828.47
2022-10-16T00:18:58.157Z,93828.66
2022-10-16T00:19:59.661Z,93828.06
2022-10-16T00:21:06.280Z,93823.53
2022-10-16T00:22:07.749Z,93823.41
2022-10-16T00:23:09.206Z,93820.19
2022-10-16T00:24:11.222Z,93823.66
2022-10-16T00:25:12.702Z,93813.75
2022-10-16T00:26:18.646Z,93824.25
2022-10-16T00:27:20.107Z,93827.13
2022-10-16T00:28:21.526Z,93822.00
2022-10-16T00:29:23.069Z,93823.53
2022-10-16T00:30:24.503Z,93819.72
2022-10-16T00:31:26.747Z,93826.88
2022-10-16T00:32:28.534Z,93826.00
2022-10-16T00:33:31.562Z,93824.75
2022-10-16T00:34:32.995Z,93825.41
2022-10-16T00:35:34.430Z,93828.59
2022-10-16T00:36:35.885Z,93820.03
2022-10-16T00:37:37.336Z,93823.72
2022-10-16T00:38:39.153Z,93826.44
2022-10-16T00:39:40.584Z,93817.16
2022-10-16T00:40:42.071Z,93819.56
2022-10-16T00:41:43.549Z,93819.81
2022-10-16T00:42:44.954Z,93826.59
2022-10-16T00:43:48.180Z,93832.03
2022-10-16T00:44:52.496Z,93834.69
2022-10-16T00:45:54.011Z,93829.84
2022-10-16T00:46:55.519Z,93834.91
2022-10-16T00:47:57.603Z,93837.78
2022-10-16T00:49:05.845Z,93828.59
2022-10-16T00:50:10.375Z,93834.94
2022-10-16T00:51:11.976Z,93835.75
2022-10-16T00:52:15.316Z,93840.06
2022-10-16T00:53:18.163Z,93839.06
2022-10-16T00:54:22.582Z,93830.44
2022-10-16T00:55:24.767Z,93830.03
2022-10-16T00:56:26.243Z,93831.25
2022-10-16T00:57:28.023Z,93835.56
2022-10-16T00:58:29.500Z,93836.19
2022-10-16T00:59:33.868Z,93836.63
2022-10-16T01:00:35.285Z,93834.56
2022-10-16T01:01:36.850Z,93834.41
2022-10-16T01:02:38.329Z,93831.50
2022-10-16T01:03:39.873Z,93836.03
2022-10-16T01:04:45.429Z,93832.56
2022-10-16T01:05:52.564Z,93839.09
2022-10-16T01:07:03.334Z,93839.34
2022-10-16T01:08:13.197Z,93846.94
2022-10-16T01:09:21.195Z,93845.28
2022-10-16T01:10:29.611Z,93844.09
2022-10-16T01:11:34.728Z,93833.72
2022-10-16T01:12:45.440Z,93837.59
2022-10-16T01:13:54.165Z,93844.38
2022-10-16T01:14:59.678Z,93836.19
2022-10-16T01:16:06.469Z,93841.91
2022-10-16T01:17:12.911Z,93834.63
2022-10-16T01:18:19.475Z,93841.16
2022-10-16T01:19:31.700Z,93839.25
2022-10-16T01:20:38.375Z,93839.66
2022-10-16T01:21:43.809Z,93841.13
2022-10-16T01:22:57.431Z,93848.84
2022-10-16T01:24:07.470Z,93840.69
2022-10-16T01:25:16.396Z,93842.31
2022-10-16T01:26:36.918Z,93842.97
2022-10-16T01:27:41.627Z,93842.72
2022-10-16T01:28:47.407Z,93837.75
2022-10-16T01:29:54.570Z,93841.53
2022-10-16T01:30:59.776Z,93841.06
2022-10-16T01:32:07.501Z,93838.41
2022-10-16T01:33:15.599Z,93836.41
2022-10-16T01:34:22.168Z,93844.81
2022-10-16T01:35:27.456Z,93839.00
2022-10-16T01:36:38.035Z,93833.97
2022-10-16T01:37:45.176Z,93841.72
2022-10-16T01:38:50.600Z,93845.00
2022-10-16T01:39:55.399Z,93840.31
2022-10-16T01:41:01.597Z,93840.50
2022-10-16T01:42:08.758Z,93846.03
2022-10-16T01:43:16.434Z,93841.50
2022-10-16T01:44:22.971Z,93840.31
2022-10-16T01:45:24.701Z,93841.06
2022-10-16T01:46:27.419Z,93850.06
2022-10-16T01:47:32.451Z,93854.16
2022-10-16T01:48:34.995Z,93852.09
2022-10-16T01:49:39.601Z,93848.41
2022-10-16T01:50:44.127Z,93847.19
2022-10-16T01:51:50.698Z,93848.59
2022-10-16T01:52:55.436Z,93842.47
2022-10-16T01:54:01.226Z,93846.59
2022-10-16T01:55:07.201Z,93839.66
2022-10-16T01:56:13.139Z,93844.75
2022-10-16T01:57:16.920Z,93838.84
2022-10-16T01:58:19.696Z,93842.84
2022-10-16T01:59:25.521Z,93844.09
2022-10-16T02:00:28.120Z,93844.91
2022-10-16T02:01:32.692Z,93844.31
2022-10-16T02:02:35.069Z,93844.31
2022-10-16T02:03:40.308Z,93842.91
2022-10-16T02:04:46.334Z,93838.78
2022-10-16T02:05:52.628Z,93841.06
2022-10-16T02:06:54.497Z,93831.47
2022-10-16T02:07:55.999Z,93851.44
2022-10-16T02:08:57.644Z,93839.59
2022-10-16T02:10:01.178Z,93842.25
2022-10-16T02:11:03.405Z,93845.34
2022-10-16T02:12:11.968Z,93847.03
2022-10-16T02:13:19.828Z,93844.94
2022-10-16T02:14:22.787Z,93850.66
2022-10-16T02:15:24.270Z,93846.56
2022-10-16T02:16:34.745Z,93836.75
2022-10-16T02:17:36.365Z,93850.22
2022-10-16T02:18:37.941Z,93848.78
2022-10-16T02:19:39.809Z,93842.69
2022-10-16T02:20:52.014Z,93851.63
2022-10-16T02:21:57.117Z,93847.19
2022-10-16T02:22:59.507Z,93843.28
2022-10-16T02:24:07.621Z,93839.78
2022-10-16T02:25:11.543Z,93844.03
2022-10-16T02:26:16.411Z,93840.94
2022-10-16T02:27:25.442Z,93842.44
2022-10-16T02:28:34.958Z,93840.19
2022-10-16T02:29:41.769Z,93842.63
2022-10-16T02:30:47.348Z,93840.56
2022-10-16T02:31:53.865Z,93845.50
2022-10-16T02:32:56.988Z,93846.25
2022-10-16T02:34:01.206Z,93852.25
2022-10-16T02:35:03.967Z,93842.97
2022-10-16T02:36:06.033Z,93846.94
2022-10-16T02:37:08.025Z,93851.44
2022-10-16T02:39:19.236Z,93853.25
2022-10-16T02:40:24.337Z,93850.16
2022-10-16T02:41:27.035Z,93850.06
2022-10-16T02:42:29.793Z,93850.22
2022-10-16T02:43:31.278Z,93851.44
2022-10-16T02:44:32.724Z,93851.56
2022-10-16T02:45:35.588Z,93849.78
2022-10-16T02:46:37.014Z,93852.28
2022-10-16T02:47:38.649Z,93853.25
2022-10-16T02:48:40.089Z,93867.56
2022-10-16T02:49:41.531Z,93871.81
2022-10-16T02:50:42.923Z,93861.81
2022-10-16T02:51:44.371Z,93858.72
2022-10-16T02:52:45.780Z,93863.38
2022-10-16T02:53:47.200Z,93867.31
2022-10-16T02:54:48.743Z,93865.41
2022-10-16T02:55:50.268Z,93859.88
2022-10-16T02:56:51.720Z,93857.63
2022-10-16T02:57:53.156Z,93861.72
2022-10-16T02:58:54.578Z,93859.06
2022-10-16T02:59:55.999Z,93866.75
2022-10-16T03:00:58.826Z,93858.25
2022-10-16T03:02:00.365Z,93858.47
2022-10-16T03:03:01.886Z,93859.50
2022-10-16T03:04:03.486Z,93861.94
2022-10-16T03:05:06.056Z,93862.94
2022-10-16T03:06:07.469Z,93858.69
2022-10-16T03:07:08.891Z,93861.50
2022-10-16T03:08:10.341Z,93862.31
2022-10-16T03:09:11.753Z,93862.38
2022-10-16T03:10:13.329Z,93862.56
2022-10-16T03:11:14.765Z,93868.28
2022-10-16T03:12:16.213Z,93861.94
2022-10-16T03:13:17.878Z,93860.09
2022-10-16T03:14:19.349Z,93858.31
2022-10-16T03:15:20.936Z,93860.63
2022-10-16T03:16:23.755Z,93858.53
2022-10-16T03:17:25.554Z,93863.25
2022-10-16T03:18:27.251Z,93863.66
2022-10-16T03:19:28.674Z,93861.38
2022-10-16T03:20:30.074Z,93849.63
2022-10-16T03:21:31.512Z,93852.06
2022-10-16T03:22:32.986Z,93848.59
2022-10-16T03:23:34.402Z,93846.13
2022-10-16T03:24:35.874Z,93842.63
2022-10-16T03:25:37.286Z,93842.59
2022-10-16T03:26:38.703Z,93848.53
2022-10-16T03:27:40.126Z,93846.06
2022-10-16T03:28:41.627Z,93840.81
2022-10-16T03:29:43.070Z,93848.28
2022-10-16T03:30:44.944Z,93841.25
2022-10-16T03:31:47.700Z,93838.72
2022-10-16T03:32:49.141Z,93839.94
2022-10-16T03:33:50.542Z,93840.75
2022-10-16T03:34:51.992Z,93844.22
2022-10-16T03:35:54.003Z,93855.66
2022-10-16T03:36:55.458Z,93846.59
2022-10-16T03:37:56.956Z,93845.63
2022-10-16T03:38:58.447Z,93853.66
2022-10-16T03:40:00.299Z,93862.38
2022-10-16T03:41:01.762Z,93860.91
2022-10-16T03:42:03.508Z,93855.03
2022-10-16T03:43:05.002Z,93849.78
2022-10-16T03:44:06.527Z,93856.13
2022-10-16T03:45:08.552Z,93848.22
2022-10-16T03:46:10.092Z,93847.19
2022-10-16T03:47:12.895Z,93844.56
2022-10-16T03:48:14.326Z,93844.84
2022-10-16T03:49:15.745Z,93848.84
2022-10-16T03:50:17.243Z,93846.59
2022-10-16T03:51:18.664Z,93850.31
2022-10-16T03:52:20.146Z,93850.31
2022-10-16T03:53:21.682Z,93845.56
2022-10-16T03:54:23.356Z,93853.53
2022-10-16T03:55:24.787Z,93855.19
2022-10-16T03:56:27.107Z,93856.84
2022-10-16T03:57:28.994Z,93854.59
2022-10-16T03:58:30.662Z,93863.34
2022-10-16T03:59:32.105Z,93856.13
2022-10-16T04:00:33.555Z,93859.88
2022-10-16T04:01:35.083Z,93857.84
2022-10-16T04:02:37.885Z,93865.75
2022-10-16T04:03:39.324Z,93862.16
2022-10-16T04:04:40.760Z,93862.78
2022-10-16T04:05:42.296Z,93862.13
2022-10-16T04:06:43.710Z,93862.53
2022-10-16T04:07:45.134Z,93868.84
2022-10-16T04:08:46.637Z,93872.53
2022-10-16T04:09:48.113Z,93871.50
2022-10-16T04:10:49.546Z,93869.50
2022-10-16T04:11:50.951Z,93874.88
2022-10-16T04:12:52.393Z,93877.66
2022-10-16T04:13:53.859Z,93871.56
2022-10-16T04:14:55.325Z,93876.06
2022-10-16T04:15:56.752Z,93870.09
2022-10-16T04:16:58.291Z,93877.53
2022-10-16T04:18:01.080Z,93874.44
2022-10-16T04:19:03.147Z,93870.31
2022-10-16T04:20:05.748Z,93878.06
2022-10-16T04:21:07.706Z,93884.41
2022-10-16T04:22:09.289Z,93876.44
2022-10-16T04:23:10.998Z,93875.44
2022-10-16T04:24:12.448Z,93874.34
2022-10-16T04:25:13.890Z,93879.03
2022-10-16T04:26:15.303Z,93871.81
2022-10-16T04:27:16.696Z,93884.88
2022-10-16T04:28:18.158Z,93877.75
2022-10-16T04:29:19.745Z,93884.91
2022-10-16T04:30:21.741Z,93881.59
2022-10-16T04:31:23.176Z,93883.88
2022-10-16T04:32:24.701Z,93881.03
2022-10-16T04:33:27.459Z,93876.13
2022-10-16T04:34:28.978Z,93886.75
2022-10-16T04:35:30.468Z,93883.88
2022-10-16T04:36:31.944Z,93878.88
2022-10-16T04:37:33.628Z,93875.16
2022-10-16T04:38:35.105Z,93875.38
2022-10-16T04:39:36.568Z,93876.00
2022-10-16T04:40:38.056Z,93885.75
2022-10-16T04:41:39.481Z,93884.53
2022-10-16T04:42:41.214Z,93889.03
2022-10-16T04:43:42.608Z,93883.72
2022-10-16T04:44:44.019Z,93880.78
2022-10-16T04:45:45.613Z,93887.53
2022-10-16T04:46:47.012Z,93889.19
2022-10-16T04:47:48.433Z,93892.25
2022-10-16T04:48:51.201Z,93888.00
2022-10-16T04:49:52.605Z,93893.69
2022-10-16T04:50:55.236Z,93893.63
2022-10-16T04:51:56.803Z,93891.84
2022-10-16T04:52:58.251Z,93896.75
2022-10-16T04:53:59.684Z,93891.63
2022-10-16T04:55:01.168Z,93893.88
2022-10-16T04:56:02.959Z,93891.88
2022-10-16T04:57:04.541Z,93895.94
2022-10-16T04:58:06.255Z,93894.09
2022-10-16T04:59:07.696Z,93891.44
2022-10-16T05:00:10.271Z,93893.69
2022-10-16T05:01:11.732Z,93892.06
2022-10-16T05:02:13.182Z,93892.44
2022-10-16T05:03:14.804Z,93895.34
2022-10-16T05:04:17.776Z,93887.38
2022-10-16T05:05:19.454Z,93889.09
2022-10-16T05:06:20.966Z,93889.06
2022-10-16T05:07:22.403Z,93887.19
2022-10-16T05:08:23.909Z,93886.94
2022-10-16T05:09:25.563Z,93876.94
2022-10-16T05:10:27.204Z,93882.44
2022-10-16T05:11:28.724Z,93880.22
2022-10-16T05:12:30.196Z,93876.13
2022-10-16T05:13:31.627Z,93870.66
2022-10-16T05:14:33.070Z,93875.34
2022-10-16T05:15:34.635Z,93881.03
2022-10-16T05:16:36.103Z,93876.09
2022-10-16T05:17:41.149Z,93874.91
2022-10-16T05:18:45.441Z,93870.84
2022-10-16T05:19:48.182Z,93878.31
2022-10-16T05:20:49.625Z,93874.22
2022-10-16T05:21:51.093Z,93876.25
2022-10-16T05:22:52.545Z,93877.28
2022-10-16T05:23:54.322Z,93877.28
2022-10-16T05:24:55.757Z,93876.09
2022-10-16T05:25:58.357Z,93877.97
2022-10-16T05:26:59.846Z,93876.91
2022-10-16T05:28:01.242Z,93883.84
2022-10-16T05:29:02.798Z,93873.16
2022-10-16T05:30:07.416Z,93877.91
2022-10-16T05:31:11.343Z,93882.41
2022-10-16T05:32:13.079Z,93884.41
2022-10-16T05:33:14.546Z,93888.50
2022-10-16T05:34:15.994Z,93888.28
2022-10-16T05:35:19.457Z,93885.88
2022-10-16T05:36:21.100Z,93897.06
2022-10-16T05:37:22.600Z,93893.03
2022-10-16T05:38:24.022Z,93896.47
2022-10-16T05:39:25.463Z,93890.75
2022-10-16T05:40:26.932Z,93896.00
2022-10-16T05:41:28.336Z,93897.84
2022-10-16T05:42:29.761Z,93899.47
2022-10-16T05:43:32.094Z,93900.50
2022-10-16T05:45:40.361Z,93903.75
2022-10-16T05:46:41.826Z,93905.44
2022-10-16T05:47:43.230Z,93900.09
2022-10-16T05:48:44.863Z,93912.78
2022-10-16T05:49:46.280Z,93909.94
2022-10-16T05:50:49.043Z,93908.09
2022-10-16T05:51:50.536Z,93912.22
2022-10-16T05:52:51.976Z,93916.47
2022-10-16T05:53:53.674Z,93912.59
2022-10-16T05:54:55.128Z,93913.88
2022-10-16T05:55:57.039Z,93912.19
2022-10-16T05:56:58.458Z,93919.94
2022-10-16T05:57:59.916Z,93920.72
2022-10-16T05:59:01.465Z,93918.88
2022-10-16T06:00:04.029Z,93916.00
2022-10-16T06:01:07.986Z,93914.38
2022-10-16T06:02:13.344Z,93918.91
2022-10-16T06:03:14.783Z,93922.34
2022-10-16T06:04:16.195Z,93921.31
2022-10-16T06:05:17.642Z,93923.31
2022-10-16T06:06:21.819Z,93930.06
2022-10-16T06:07:24.127Z,93929.91
2022-10-16T06:08:26.017Z,93931.09
2022-10-16T06:09:27.528Z,93930.47
2022-10-16T06:10:29.005Z,93930.00
2022-10-16T06:11:32.298Z,93932.28
2022-10-16T06:12:33.739Z,93931.25
2022-10-16T06:13:35.480Z,93939.22
2022-10-16T06:14:36.951Z,93933.91
2022-10-16T06:15:38.591Z,93931.75
2022-10-16T06:16:40.013Z,93937.00
2022-10-16T06:17:41.420Z,93933.31
2022-10-16T06:18:42.877Z,93935.56
2022-10-16T06:19:44.399Z,93929.44
2022-10-16T06:20:45.805Z,93941.88
2022-10-16T06:21:48.538Z,93937.75
2022-10-16T06:22:49.967Z,93938.59
2022-10-16T06:23:51.662Z,93924.66
2022-10-16T06:24:53.098Z,93924.19
2022-10-16T06:25:54.491Z,93933.56
2022-10-16T06:26:56.301Z,93936.38
2022-10-16T06:27:57.748Z,93933.84
2022-10-16T06:29:00.297Z,93934.19
2022-10-16T06:30:01.825Z,93938.16
2022-10-16T06:31:08.154Z,93936.69
2022-10-16T06:32:10.052Z,93939.16
2022-10-16T06:33:11.521Z,93938.53
2022-10-16T06:34:13.061Z,93944.84
2022-10-16T06:35:14.615Z,93951.19
2022-10-16T06:36:17.946Z,93946.22
2022-10-16T06:37:21.009Z,93947.06
2022-10-16T06:38:22.419Z,93945.31
2022-10-16T06:39:23.895Z,93950.63
2022-10-16T06:40:25.437Z,93949.56
2022-10-16T06:41:27.048Z,93951.38
2022-10-16T06:42:28.726Z,93958.13
2022-10-16T06:43:30.847Z,93958.25
2022-10-16T06:44:32.273Z,93966.84
2022-10-16T06:45:33.711Z,93962.53
2022-10-16T06:46:35.370Z,93964.38
2022-10-16T06:47:36.852Z,93962.50
2022-10-16T06:48:38.892Z,93969.69
2022-10-16T06:49:40.319Z,93964.63
2022-10-16T06:50:41.736Z,93965.41
2022-10-16T06:51:43.615Z,93972.09
2022-10-16T06:52:46.552Z,93973.09
2022-10-16T06:54:02.319Z,93973.53
2022-10-16T06:55:05.523Z,93972.44
2022-10-16T06:56:11.797Z,93965.06
2022-10-16T06:57:13.248Z,93976.28
2022-10-16T06:58:14.671Z,93975.66
2022-10-16T06:59:16.114Z,93972.56
2022-10-16T07:00:17.903Z,93972.59
2022-10-16T07:01:21.339Z,93979.16
2022-10-16T07:02:22.778Z,93980.97
2022-10-16T07:03:24.238Z,93980.09
2022-10-16T07:04:25.752Z,93983.94
2022-10-16T07:05:27.321Z,93990.06
2022-10-16T07:06:32.802Z,93984.53
2022-10-16T07:07:34.329Z,93986.78
2022-10-16T07:08:39.094Z,93988.22
2022-10-16T07:09:41.292Z,93984.91
2022-10-16T07:10:42.736Z,93981.81
2022-10-16T07:11:44.427Z,93982.19
2022-10-16T07:12:45.934Z,93987.09
2022-10-16T07:13:52.569Z,93990.75
2022-10-16T07:14:56.622Z,93987.66
2022-10-16T07:15:58.027Z,93993.75
2022-10-16T07:16:59.430Z,93991.16
2022-10-16T07:18:01.036Z,93998.31
2022-10-16T07:19:03.991Z,93999.84
2022-10-16T07:20:06.455Z,94003.63
2022-10-16T07:21:10.166Z,93998.47
2022-10-16T07:22:11.577Z,94000.25
2022-10-16T07:23:13.008Z,94003.78
2022-10-16T07:24:16.936Z,94002.38
2022-10-16T07:25:18.836Z,94003.53
2022-10-16T07:26:20.441Z,94005.59
2022-10-16T07:27:21.903Z,94014.00
2022-10-16T07:28:23.333Z,94012.09
2022-10-16T07:29:24.788Z,94009.22
2022-10-16T07:30:26.279Z,94008.47
2022-10-16T07:31:28.425Z,94012.31
2022-10-16T07:32:29.962Z,94009.84
2022-10-16T07:33:32.274Z,94011.50
2022-10-16T07:34:33.721Z,94015.03
2022-10-16T07:35:35.179Z,94019.81
2022-10-16T07:36:36.652Z,94018.06
2022-10-16T07:37:38.146Z,94026.09
2022-10-16T07:38:39.599Z,94029.63
2022-10-16T07:39:42.350Z,94031.44
2022-10-16T07:40:43.794Z,94032.00
2022-10-16T07:41:45.279Z,94038.47
2022-10-16T07:42:46.738Z,94040.91
2022-10-16T07:43:49.227Z,94042.75
2022-10-16T07:44:50.672Z,94040.28
2022-10-16T07:46:58.765Z,94040.91
2022-10-16T07:48:00.231Z,94043.38
2022-10-16T07:49:01.626Z,94048.19
2022-10-16T07:50:03.479Z,94046.09
2022-10-16T07:51:06.703Z,94046.47
2022-10-16T07:52:08.155Z,94044.31
2022-10-16T07:53:10.482Z,94049.63
2022-10-16T07:54:11.914Z,94051.88
2022-10-16T07:55:14.923Z,94050.03
2022-10-16T07:56:17.468Z,94047.75
2022-10-16T07:57:18.860Z,94051.41
2022-10-16T07:58:20.279Z,94049.19
2022-10-16T07:59:21.746Z,94053.88
2022-10-16T08:00:23.202Z,94055.44
2022-10-16T08:01:24.696Z,94056.72
2022-10-16T08:02:26.119Z,94053.78
2022-10-16T08:03:27.555Z,94050.19
2022-10-16T08:04:29.145Z,94054.19
2022-10-16T08:05:32.043Z,94055.84
2022-10-16T08:06:37.150Z,94056.00
2022-10-16T08:07:38.574Z,94057.66
2022-10-16T08:08:40.074Z,94052.66
2022-10-16T08:09:41.476Z,94053.56
2022-10-16T08:10:44.274Z,94056.03
2022-10-16T08:11:45.689Z,94053.78
2022-10-16T08:12:47.171Z,94051.66
2022-10-16T08:13:48.596Z,94053.28
2022-10-16T08:14:50.050Z,94057.41
2022-10-16T08:15:51.545Z,94059.97
2022-10-16T08:16:52.954Z,94065.09
2022-10-16T08:17:58.843Z,94074.06
2022-10-16T08:19:00.295Z,94071.31
2022-10-16T08:20:01.976Z,94067.25
2022-10-16T08:21:04.167Z,94067.13
2022-10-16T08:22:05.626Z,94071.81
2022-10-16T08:23:07.132Z,94066.25
2022-10-16T08:24:08.572Z,94067.50
2022-10-16T08:25:10.072Z,94065.78
2022-10-16T08:26:13.437Z,94063.41
2022-10-16T08:27:14.862Z,94058.47
2022-10-16T08:28:16.331Z,94065.56
2022-10-16T08:29:17.763Z,94071.47
2022-10-16T08:30:21.513Z,94068.56
2022-10-16T08:31:23.536Z,94080.75
2022-10-16T08:32:27.507Z,94073.31
2022-10-16T08:33:29.192Z,94087.31
2022-10-16T08:34:30.619Z,94094.44
2022-10-16T08:35:32.083Z,94087.16
2022-10-16T08:36:33.478Z,94098.56
2022-10-16T08:37:35.413Z,94097.09
2022-10-16T08:38:36.863Z,94096.78
2022-10-16T08:39:38.273Z,94098.63
2022-10-16T08:40:39.708Z,94097.31
2022-10-16T08:42:05.495Z,94101.59
2022-10-16T08:43:29.910Z,94107.47
2022-10-16T08:44:57.131Z,94099.56
2022-10-16T08:46:16.792Z,94102.84
2022-10-16T08:47:20.932Z,94102.81
2022-10-16T08:48:28.416Z,94097.03
2022-10-16T08:49:30.956Z,94098.88
2022-10-16T08:50:36.971Z,94101.41
2022-10-16T08:51:40.412Z,94099.66
2022-10-16T08:52:46.056Z,94100.19
2022-10-16T08:53:52.046Z,94098.25
2022-10-16T08:54:56.191Z,94104.56
2022-10-16T08:55:57.988Z,94099.44
2022-10-16T08:57:11.964Z,94099.69
2022-10-16T08:58:15.127Z,94109.53
2022-10-16T08:59:17.787Z,94109.59
2022-10-16T09:00:19.956Z,94107.72
2022-10-16T09:01:25.085Z,94113.78
2022-10-16T09:02:33.319Z,94117.19
2022-10-16T09:03:47.944Z,94113.00
2022-10-16T09:05:03.331Z,94114.97
2022-10-16T09:06:17.198Z,94111.50
2022-10-16T09:07:26.660Z,94108.44
2022-10-16T09:08:38.011Z,94104.19
2022-10-16T09:09:50.445Z,94105.06
2022-10-16T09:10:58.158Z,94108.59
2022-10-16T09:12:08.735Z,94110.56
2022-10-16T09:13:20.073Z,94106.84
2022-10-16T09:14:41.269Z,94114.78
2022-10-16T09:15:50.906Z,94117.84
2022-10-16T09:16:57.522Z,94114.34
2022-10-16T09:18:07.152Z,94118.31
2022-10-16T09:19:17.843Z,94123.28
2022-10-16T09:20:30.171Z,94118.13
2022-10-16T09:21:35.221Z,94124.84
2022-10-16T09:22:37.232Z,94128.31
2022-10-16T09:23:39.147Z,94130.16
2022-10-16T09:24:40.706Z,94128.34
2022-10-16T09:25:45.565Z,94126.84
2022-10-16T09:26:47.900Z,94130.97
2022-10-16T09:27:53.952Z,94135.19
2022-10-16T09:28:55.467Z,94135.78
2022-10-16T09:29:59.654Z,94136.97
2022-10-16T09:31:01.613Z,94134.44
2022-10-16T09:32:12.265Z,94140.94
2022-10-16T09:33:15.460Z,94137.75
2022-10-16T09:34:27.130Z,94137.03
2022-10-16T09:35:36.053Z,94145.50
2022-10-16T09:36:42.320Z,94147.81
2022-10-16T09:37:45.195Z,94147.47
2022-10-16T09:38:46.625Z,94140.97
2022-10-16T09:39:49.790Z,94150.88
2022-10-16T09:40:58.927Z,94155.13
2022-10-16T09:42:05.223Z,94157.41
2022-10-16T09:43:25.478Z,94149.56
2022-10-16T09:44:29.107Z,94145.63
2022-10-16T09:45:30.633Z,94151.25
2022-10-16T09:46:33.894Z,94139.72
2022-10-16T09:47:42.928Z,94144.91
2022-10-16T09:48:45.633Z,94136.41
2022-10-16T09:49:54.901Z,94138.34
2022-10-16T09:50:58.081Z,94134.19
2022-10-16T09:52:06.395Z,94135.19
2022-10-16T09:53:12.924Z,94136.59
2022-10-16T09:54:16.562Z,94139.72
2022-10-16T09:55:19.399Z,94129.94
2022-10-16T09:56:26.177Z,94135.72
2022-10-16T09:57:29.026Z,94142.81
2022-10-16T09:58:32.177Z,94150.03
2022-10-16T09:59:33.755Z,94156.31
2022-10-16T10:00:35.259Z,94157.69
2022-10-16T10:01:40.165Z,94153.94
2022-10-16T10:02:41.730Z,94156.34
2022-10-16T10:03:44.840Z,94157.69
2022-10-16T10:04:51.386Z,94156.44
2022-10-16T10:05:52.852Z,94159.78
2022-10-16T10:06:56.455Z,94146.09
2022-10-16T10:07:59.303Z,94157.00
2022-10-16T10:09:05.387Z,94150.22
2022-10-16T10:10:20.614Z,94159.78
2022-10-16T10:11:37.835Z,94153.22
2022-10-16T10:12:39.539Z,94156.31
2022-10-16T10:13:42.342Z,94157.34
2022-10-16T10:14:47.714Z,94163.78
2022-10-16T10:15:49.745Z,94162.94
2022-10-16T10:16:52.251Z,94165.59
2022-10-16T10:17:55.488Z,94167.78
2022-10-16T10:19:00.028Z,94167.28
2022-10-16T10:20:16.919Z,94164.72
2022-10-16T10:21:18.344Z,94175.81
2022-10-16T10:22:24.361Z,94159.94
2022-10-16T10:23:28.298Z,94162.38
2022-10-16T10:24:29.726Z,94160.28
2022-10-16T10:25:44.165Z,94159.16
2022-10-16T10:26:56.309Z,94157.28
2022-10-16T10:28:15.983Z,94153.03
2022-10-16T10:29:29.557Z,94147.22
2022-10-16T10:30:39.523Z,94156.63
2022-10-16T10:31:50.147Z,94155.63
2022-10-16T10:33:10.247Z,94155.34
2022-10-16T10:34:25.943Z,94152.38
2022-10-16T10:35:35.802Z,94153.31
2022-10-16T10:36:39.474Z,94148.41
2022-10-16T10:38:03.060Z,94150.16
2022-10-16T10:39:11.985Z,94154.81
2022-10-16T10:40:24.686Z,94157.31
2022-10-16T10:41:45.765Z,94151.44
2022-10-16T10:42:54.594Z,94155.44
2022-10-16T10:44:08.681Z,94157.47
2022-10-16T10:45:21.456Z,94156.16
2022-10-16T10:46:32.949Z,94152.69
2022-10-16T10:47:44.187Z,94149.34
2022-10-16T10:49:15.790Z,94157.56
2022-10-16T10:50:23.547Z,94146.94
2022-10-16T10:51:32.889Z,94141.44
2022-10-16T10:52:45.899Z,94139.03
2022-10-16T10:53:56.815Z,94138.84
2022-10-16T10:55:15.283Z,94147.91
2022-10-16T10:56:31.223Z,94143.78
2022-10-16T10:57:42.287Z,94141.44
2022-10-16T10:59:29.081Z,94138.19
2022-10-16T11:00:43.836Z,94145.03
2022-10-16T11:01:51.272Z,94137.94
2022-10-16T11:03:07.812Z,94143.75
2022-10-16T11:04:27.315Z,94138.81
2022-10-16T11:05:37.667Z,94144.03
2022-10-16T11:07:54.547Z,94146.44
2022-10-16T11:09:01.732Z,94144.28
2022-10-16T11:10:06.689Z,94127.56
2022-10-16T11:11:14.834Z,94133.09
2022-10-16T11:12:20.195Z,94130.78
2022-10-16T11:13:30.182Z,94140.03
2022-10-16T11:14:36.853Z,94132.59
2022-10-16T11:15:42.307Z,94135.00
2022-10-16T11:16:49.123Z,94128.69
2022-10-16T11:17:55.403Z,94132.78
2022-10-16T11:19:03.695Z,94140.16
2022-10-16T11:20:15.386Z,94137.44
2022-10-16T11:21:20.478Z,94132.16
2022-10-16T11:22:27.702Z,94129.69
2022-10-16T11:23:34.527Z,94132.59
2022-10-16T11:24:43.361Z,94123.53
2022-10-16T11:25:47.446Z,94130.94
2022-10-16T11:26:51.373Z,94129.09
2022-10-16T11:27:58.561Z,94123.78
2022-10-16T11:29:02.833Z,94129.50
2022-10-16T11:30:13.140Z,94126.28
2022-10-16T11:31:21.704Z,94128.63
2022-10-16T11:32:27.405Z,94122.81
2022-10-16T11:33:32.922Z,94126.78
2022-10-16T11:34:39.525Z,94122.94
2022-10-16T11:35:47.411Z,94126.88
2022-10-16T11:36:52.421Z,94124.00
2022-10-16T11:37:56.572Z,94121.78
2022-10-16T11:39:03.672Z,94119.56
2022-10-16T11:40:19.951Z,94121.06
2022-10-16T11:41:28.460Z,94122.09
2022-10-16T11:42:36.981Z,94125.91
2022-10-16T11:43:43.544Z,94127.75
2022-10-16T11:44:54.352Z,94121.13
2022-10-16T11:45:58.800Z,94127.97
2022-10-16T11:47:33.946Z,94126.13
2022-10-16T11:48:39.906Z,94124.13
2022-10-16T11:49:42.814Z,94122.47
2022-10-16T11:50:50.839Z,94125.78
2022-10-16T11:52:01.518Z,94115.59
2022-10-16T11:53:12.381Z,94117.75
2022-10-16T11:54:23.155Z,94120.75
2022-10-16T11:55:30.518Z,94118.44
2022-10-16T11:56:36.523Z,94115.06
2022-10-16T11:57:44.089Z,94121.13
2022-10-16T11:58:56.921Z,94118.06
2022-10-16T12:00:02.664Z,94118.31
2022-10-16T12:01:18.534Z,94116.69
2022-10-16T12:02:51.811Z,94119.00
2022-10-16T12:04:03.596Z,94125.03
2022-10-16T12:05:19.502Z,94119.75
2022-10-16T12:06:31.887Z,94115.38
2022-10-16T12:07:38.036Z,94116.97
2022-10-16T12:08:40.749Z,94114.47
2022-10-16T12:09:42.791Z,94116.19
2022-10-16T12:10:46.179Z,94116.22
2022-10-16T12:11:47.602Z,94116.31
2022-10-16T12:12:49.467Z,94113.50
2022-10-16T12:13:51.509Z,94114.84
2022-10-16T12:15:25.772Z,94120.13
2022-10-16T12:16:24.582Z,94121.41
2022-10-16T12:17:28.442Z,94112.44
2022-10-16T12:18:31.543Z,94118.06
2022-10-16T12:19:33.501Z,94114.53
2022-10-16T12:20:35.010Z,94121.75
2022-10-16T12:21:36.515Z,94121.38
2022-10-16T12:22:41.899Z,94118.31
2022-10-16T12:23:49.337Z,94128.66
2022-10-16T12:24:52.253Z,94124.34
2022-10-16T12:25:56.251Z,94128.41
2022-10-16T12:26:58.078Z,94125.81
2022-10-16T12:28:04.769Z,94123.25
2022-10-16T12:29:19.994Z,94127.63
2022-10-16T12:30:24.132Z,94123.56
2022-10-16T12:31:42.704Z,94121.72
2022-10-16T12:32:55.015Z,94122.38
2022-10-16T12:34:03.709Z,94129.94
2022-10-16T12:35:07.772Z,94128.69
2022-10-16T12:36:14.600Z,94120.66
2022-10-16T12:37:22.615Z,94126.28
2022-10-16T12:38:28.186Z,94124.34
2022-10-16T12:39:29.679Z,94126.75
2022-10-16T12:40:33.503Z,94123.44